createdAt,value
2023-05-18T00:00:14.729Z,8.00
2023-05-18T00:01:46.387Z,8.68
2023-05-18T00:03:18.545Z,9.80
2023-05-18T00:04:50.382Z,7.88
2023-05-18T00:06:22.545Z,9.40
2023-05-18T00:07:54.379Z,7.80
2023-05-18T00:09:26.323Z,9.20
2023-05-18T00:10:58.265Z,9.60
2023-05-18T00:12:29.968Z,7.28
2023-05-18T00:14:03.347Z,9.23
2023-05-18T00:15:36.440Z,8.85
2023-05-18T00:17:08.189Z,7.68
2023-05-18T00:18:39.976Z,8.63
2023-05-18T00:20:11.845Z,7.70
2023-05-18T00:21:43.746Z,9.50
2023-05-18T00:23:16.437Z,7.80
2023-05-18T00:24:48.247Z,6.82
2023-05-18T00:26:20.004Z,7.03
2023-05-18T00:27:52.060Z,7.82
2023-05-18T00:29:23.883Z,7.38
2023-05-18T00:30:57.132Z,7.35
2023-05-18T00:32:28.925Z,9.20
2023-05-18T00:34:00.757Z,7.82
2023-05-18T00:35:32.658Z,6.88
2023-05-18T00:37:04.652Z,7.57
2023-05-18T00:38:36.448Z,6.47
2023-05-18T00:40:09.508Z,9.00
2023-05-18T00:41:41.422Z,6.43
2023-05-18T00:43:13.248Z,7.70
2023-05-18T00:44:45.059Z,10.73
2023-05-18T00:46:18.301Z,7.85
2023-05-18T00:47:50.084Z,7.13
2023-05-18T00:49:21.763Z,7.05
2023-05-18T00:50:53.765Z,8.43
2023-05-18T00:52:25.807Z,7.88
2023-05-18T00:53:57.596Z,8.20
2023-05-18T00:55:29.426Z,7.80
2023-05-18T00:57:04.053Z,6.80
2023-05-18T00:58:36.542Z,7.60
2023-05-18T01:00:10.880Z,7.32
2023-05-18T01:01:46.293Z,7.10
2023-05-18T01:03:20.247Z,6.60
2023-05-18T01:04:52.840Z,7.97
2023-05-18T01:06:27.285Z,11.23
2023-05-18T01:07:59.058Z,6.20
2023-05-18T01:09:30.693Z,7.20
2023-05-18T01:11:06.635Z,7.28
2023-05-18T01:12:41.571Z,7.18
2023-05-18T01:14:15.755Z,9.25
2023-05-18T01:15:48.223Z,8.82
2023-05-18T01:17:26.245Z,7.93
2023-05-18T01:19:01.158Z,7.28
2023-05-18T01:20:38.145Z,9.40
2023-05-18T01:22:16.503Z,7.18
2023-05-18T01:23:59.019Z,7.60
2023-05-18T01:25:34.374Z,7.43
2023-05-18T01:27:07.473Z,7.55
2023-05-18T01:28:39.221Z,10.57
2023-05-18T01:30:11.392Z,8.82
2023-05-18T01:31:43.160Z,8.02
2023-05-18T01:33:15.002Z,9.07
2023-05-18T01:34:46.815Z,8.73
2023-05-18T01:36:18.454Z,11.18
2023-05-18T01:37:50.143Z,8.10
2023-05-18T01:39:21.883Z,8.10
2023-05-18T01:40:58.486Z,8.60
2023-05-18T01:42:31.533Z,8.30
2023-05-18T01:44:09.198Z,9.63
2023-05-18T01:45:42.752Z,8.35
2023-05-18T01:47:15.106Z,8.35
2023-05-18T01:48:53.710Z,8.98
2023-05-18T01:50:29.674Z,7.63
2023-05-18T01:52:03.594Z,8.73
2023-05-18T01:53:38.266Z,7.97
2023-05-18T01:55:10.346Z,7.38
2023-05-18T01:56:41.998Z,6.40
2023-05-18T01:58:15.172Z,7.75
2023-05-18T01:59:47.104Z,8.25
2023-05-18T02:01:20.314Z,8.32
2023-05-18T02:02:52.248Z,8.77
2023-05-18T02:04:23.944Z,10.73
2023-05-18T02:05:56.273Z,7.35
2023-05-18T02:07:28.024Z,7.38
2023-05-18T02:08:59.791Z,8.30
2023-05-18T02:10:31.556Z,7.35
2023-05-18T02:12:03.564Z,7.00
2023-05-18T02:13:36.636Z,9.57
2023-05-18T02:15:09.214Z,9.48
2023-05-18T02:16:40.959Z,8.95
2023-05-18T02:18:12.825Z,8.82
2023-05-18T02:19:44.787Z,7.88
2023-05-18T02:21:16.579Z,8.88
2023-05-18T02:22:48.366Z,10.20
2023-05-18T02:24:20.162Z,6.80
2023-05-18T02:25:51.979Z,8.98
2023-05-18T02:27:23.670Z,8.32
2023-05-18T02:28:56.708Z,8.93
2023-05-18T02:30:29.360Z,8.00
2023-05-18T02:32:01.144Z,9.73
2023-05-18T02:33:36.298Z,7.65
2023-05-18T02:35:08.582Z,9.43
2023-05-18T02:36:40.551Z,7.85
2023-05-18T02:38:12.572Z,9.07
2023-05-18T02:39:44.438Z,8.77
2023-05-18T02:41:16.082Z,8.63
2023-05-18T02:42:47.724Z,7.03
2023-05-18T02:44:20.859Z,7.70
2023-05-18T02:45:52.733Z,7.25
2023-05-18T02:47:24.445Z,8.90
2023-05-18T02:48:56.759Z,8.73
2023-05-18T02:50:28.434Z,9.77
2023-05-18T02:52:00.375Z,10.57
2023-05-18T02:53:32.220Z,8.73
2023-05-18T02:55:04.647Z,7.38
2023-05-18T02:56:36.464Z,7.68
2023-05-18T02:58:08.141Z,9.18
2023-05-18T02:59:42.128Z,7.80
2023-05-18T03:01:13.900Z,9.32
2023-05-18T03:02:48.449Z,8.00
2023-05-18T03:04:21.923Z,8.70
2023-05-18T03:05:53.688Z,8.43
2023-05-18T03:07:27.558Z,8.30
2023-05-18T03:08:59.316Z,9.13
2023-05-18T03:10:31.251Z,10.23
2023-05-18T03:12:02.996Z,8.43
2023-05-18T03:13:34.699Z,9.98
2023-05-18T03:15:09.157Z,9.63
2023-05-18T03:16:40.968Z,8.85
2023-05-18T03:18:12.822Z,8.77
2023-05-18T03:19:44.545Z,8.98
2023-05-18T03:21:16.660Z,10.75
2023-05-18T03:22:48.410Z,9.80
2023-05-18T03:24:20.330Z,8.73
2023-05-18T03:25:54.268Z,9.65
2023-05-18T03:27:27.655Z,10.10
2023-05-18T03:28:59.466Z,9.02
2023-05-18T03:30:33.222Z,8.63
2023-05-18T03:32:05.371Z,7.50
2023-05-18T03:33:37.179Z,9.60
2023-05-18T03:35:09.633Z,8.05
2023-05-18T03:36:47.320Z,7.80
2023-05-18T03:38:19.435Z,8.85
2023-05-18T03:39:51.297Z,8.75
2023-05-18T03:41:22.992Z,10.75
2023-05-18T03:42:54.688Z,9.50
2023-05-18T03:44:26.454Z,8.98
2023-05-18T03:45:59.643Z,9.90
2023-05-18T03:47:31.360Z,11.93
2023-05-18T03:49:04.950Z,12.15
2023-05-18T03:50:36.900Z,9.95
2023-05-18T03:52:08.583Z,9.43
2023-05-18T03:53:41.098Z,10.90
2023-05-18T03:55:13.135Z,11.32
2023-05-18T03:56:44.768Z,10.05
2023-05-18T03:58:16.415Z,9.07
2023-05-18T03:59:48.133Z,7.82
2023-05-18T04:01:23.791Z,9.80
2023-05-18T04:02:57.097Z,8.40
2023-05-18T04:04:28.834Z,9.13
2023-05-18T04:06:00.489Z,8.50
2023-05-18T04:07:32.207Z,21.58
2023-05-18T04:09:04.088Z,9.23
2023-05-18T04:10:35.814Z,11.18
2023-05-18T04:12:08.071Z,8.77
2023-05-18T04:13:39.730Z,9.32
2023-05-18T04:15:14.432Z,11.30
2023-05-18T04:16:47.721Z,9.52
2023-05-18T04:18:19.668Z,10.13
2023-05-18T04:19:51.490Z,10.40
2023-05-18T04:21:23.241Z,10.52
2023-05-18T04:22:55.504Z,10.13
2023-05-18T04:24:27.140Z,9.00
2023-05-18T04:25:58.837Z,9.82
2023-05-18T04:27:30.586Z,10.15
2023-05-18T04:29:02.356Z,8.63
2023-05-18T04:30:35.522Z,11.70
2023-05-18T04:32:09.022Z,10.93
2023-05-18T04:33:46.558Z,9.82
2023-05-18T04:35:18.700Z,11.68
2023-05-18T04:36:50.425Z,9.15
2023-05-18T04:38:25.061Z,10.82
2023-05-18T04:39:58.770Z,9.10
2023-05-18T04:41:30.509Z,10.38
2023-05-18T04:43:02.276Z,7.72
2023-05-18T04:44:34.277Z,9.75
2023-05-18T04:46:07.317Z,9.95
2023-05-18T04:47:40.652Z,9.35
2023-05-18T04:49:12.353Z,11.63
2023-05-18T04:50:44.178Z,11.25
2023-05-18T04:52:15.849Z,11.55
2023-05-18T04:53:50.170Z,11.73
2023-05-18T04:55:29.194Z,9.48
2023-05-18T04:57:03.488Z,8.85
2023-05-18T04:58:35.715Z,12.63
2023-05-18T05:00:09.785Z,9.63
2023-05-18T05:01:41.567Z,11.73
2023-05-18T05:03:14.789Z,10.13
2023-05-18T05:04:46.794Z,12.43
2023-05-18T05:06:18.530Z,12.88
2023-05-18T05:07:50.930Z,11.38
2023-05-18T05:09:22.639Z,13.00
2023-05-18T05:10:54.397Z,11.27
2023-05-18T05:12:26.104Z,11.10
2023-05-18T05:13:58.142Z,9.43
2023-05-18T05:15:30.031Z,10.63
2023-05-18T05:17:01.934Z,9.50
2023-05-18T05:18:34.989Z,11.57
2023-05-18T05:20:07.915Z,8.05
2023-05-18T05:21:40.375Z,10.23
2023-05-18T05:23:12.114Z,13.00
2023-05-18T05:24:43.814Z,9.00
2023-05-18T05:26:15.660Z,9.90
2023-05-18T05:27:47.581Z,11.20
2023-05-18T05:29:20.009Z,12.05
2023-05-18T05:30:51.798Z,10.15
2023-05-18T05:32:23.480Z,10.68
2023-05-18T05:33:56.556Z,8.98
2023-05-18T05:35:28.855Z,10.32
2023-05-18T05:37:01.725Z,11.32
2023-05-18T05:38:33.408Z,10.32
2023-05-18T05:40:06.658Z,10.25
2023-05-18T05:41:38.982Z,11.45
2023-05-18T05:43:10.713Z,11.23
2023-05-18T05:44:42.377Z,9.02
2023-05-18T05:46:14.106Z,10.15
2023-05-18T05:47:45.865Z,9.55
2023-05-18T05:49:18.999Z,10.52
2023-05-18T05:50:50.775Z,10.85
2023-05-18T05:52:25.166Z,12.45
2023-05-18T05:53:56.850Z,9.98
2023-05-18T05:55:28.736Z,11.32
2023-05-18T05:57:00.806Z,12.48
2023-05-18T05:58:32.627Z,12.38
2023-05-18T06:00:05.374Z,12.30
2023-05-18T06:01:37.225Z,10.60
2023-05-18T06:03:08.945Z,9.15
2023-05-18T06:04:42.173Z,10.95
2023-05-18T06:06:13.891Z,9.25
2023-05-18T06:07:45.560Z,9.20
2023-05-18T06:09:17.351Z,12.25
2023-05-18T06:10:49.168Z,10.40
2023-05-18T06:12:21.445Z,8.82
2023-05-18T06:13:53.198Z,11.27
2023-05-18T06:15:24.894Z,9.75
2023-05-18T06:16:57.881Z,10.52
2023-05-18T06:18:29.738Z,9.57
2023-05-18T06:20:04.525Z,11.68
2023-05-18T06:21:36.392Z,10.25
2023-05-18T06:23:08.226Z,12.38
2023-05-18T06:24:39.939Z,10.35
2023-05-18T06:26:11.638Z,11.85
2023-05-18T06:27:44.470Z,8.70
2023-05-18T06:29:16.167Z,10.43
2023-05-18T06:30:47.872Z,11.88
2023-05-18T06:32:20.249Z,10.88
2023-05-18T06:33:52.116Z,11.57
2023-05-18T06:35:25.159Z,12.07
2023-05-18T06:36:56.865Z,10.05
2023-05-18T06:38:28.634Z,10.23
2023-05-18T06:40:00.295Z,9.18
2023-05-18T06:41:31.991Z,10.98
2023-05-18T06:43:03.608Z,12.30
2023-05-18T06:44:36.034Z,11.93
2023-05-18T06:46:08.006Z,10.60
2023-05-18T06:47:39.716Z,9.57
2023-05-18T06:49:11.468Z,12.93
2023-05-18T06:50:44.472Z,10.93
2023-05-18T06:52:16.476Z,10.20
2023-05-18T06:53:48.284Z,11.93
2023-05-18T06:55:20.075Z,10.02
2023-05-18T06:56:52.389Z,11.80
2023-05-18T06:58:24.055Z,11.63
2023-05-18T06:59:56.005Z,11.07
2023-05-18T07:01:27.955Z,13.13
2023-05-18T07:02:59.961Z,10.57
2023-05-18T07:04:31.967Z,10.63
2023-05-18T07:06:05.775Z,10.60
2023-05-18T07:07:37.808Z,10.50
2023-05-18T07:09:12.054Z,10.85
2023-05-18T07:10:43.829Z,10.38
2023-05-18T07:12:15.511Z,10.27
2023-05-18T07:13:47.262Z,11.52
2023-05-18T07:15:19.013Z,10.80
2023-05-18T07:16:50.821Z,10.93
2023-05-18T07:18:22.586Z,11.25
2023-05-18T07:19:54.395Z,10.45
2023-05-18T07:21:27.561Z,11.27
2023-05-18T07:22:59.241Z,11.13
2023-05-18T07:24:31.326Z,12.80
2023-05-18T07:26:03.048Z,10.60
2023-05-18T07:27:34.784Z,10.27
2023-05-18T07:29:06.605Z,11.02
2023-05-18T07:30:38.429Z,11.50
2023-05-18T07:32:10.156Z,11.15
2023-05-18T07:33:41.854Z,11.00
2023-05-18T07:35:13.651Z,11.60
2023-05-18T07:36:46.834Z,12.70
2023-05-18T07:38:18.648Z,12.43
2023-05-18T07:39:50.352Z,10.57
2023-05-18T07:41:22.989Z,11.68
2023-05-18T07:42:54.860Z,11.30
2023-05-18T07:44:26.626Z,13.40
2023-05-18T07:45:58.360Z,12.52
2023-05-18T07:47:30.082Z,12.65
2023-05-18T07:49:02.166Z,11.77
2023-05-18T07:50:34.681Z,11.45
2023-05-18T07:52:08.386Z,10.32
2023-05-18T07:53:41.491Z,9.52
2023-05-18T07:55:13.706Z,11.13
2023-05-18T07:56:45.383Z,12.00
2023-05-18T07:58:17.104Z,9.90
2023-05-18T07:59:48.850Z,10.75
2023-05-18T08:01:38.772Z,10.35
2023-05-18T08:03:10.572Z,12.23
2023-05-18T08:04:42.613Z,10.65
2023-05-18T08:06:14.359Z,9.20
2023-05-18T08:07:47.400Z,11.05
2023-05-18T08:09:19.147Z,8.07
2023-05-18T08:10:51.580Z,9.38
2023-05-18T08:12:23.451Z,8.38
2023-05-18T08:13:55.142Z,8.15
2023-05-18T08:15:26.965Z,8.50
2023-05-18T08:16:58.858Z,7.15
2023-05-18T08:18:33.692Z,9.05
2023-05-18T08:20:07.106Z,8.52
2023-05-18T08:21:38.873Z,8.93
2023-05-18T08:23:12.033Z,8.63
2023-05-18T08:24:45.150Z,8.27
2023-05-18T08:26:17.151Z,9.85
2023-05-18T08:27:48.973Z,14.13
2023-05-18T08:29:21.309Z,7.57
2023-05-18T08:30:53.030Z,8.10
2023-05-18T08:32:24.922Z,9.05
2023-05-18T08:33:56.659Z,9.48
2023-05-18T08:35:28.725Z,10.10
2023-05-18T08:37:00.627Z,8.35
2023-05-18T08:38:33.821Z,7.78
2023-05-18T08:40:08.080Z,6.68
2023-05-18T08:41:42.116Z,7.85
2023-05-18T08:43:19.701Z,6.50
2023-05-18T08:44:56.216Z,7.75
2023-05-18T08:46:33.670Z,5.85
2023-05-18T08:48:05.912Z,6.70
2023-05-18T08:49:37.737Z,8.82
2023-05-18T08:51:09.675Z,6.20
2023-05-18T08:52:42.889Z,6.90
2023-05-18T08:54:21.057Z,9.02
2023-05-18T08:55:53.858Z,6.13
2023-05-18T08:57:26.371Z,6.50
2023-05-18T08:59:01.774Z,5.15
2023-05-18T09:00:34.217Z,5.88
2023-05-18T09:02:06.593Z,7.28
2023-05-18T09:03:38.517Z,5.65
2023-05-18T09:05:12.449Z,6.55
2023-05-18T09:06:45.124Z,5.28
2023-05-18T09:08:16.864Z,6.97
2023-05-18T09:09:49.989Z,5.20
2023-05-18T09:11:22.211Z,4.70
2023-05-18T09:12:53.937Z,5.75
2023-05-18T09:14:26.958Z,6.63
2023-05-18T09:15:58.958Z,5.85
2023-05-18T09:17:30.753Z,5.93
2023-05-18T09:19:02.596Z,6.10
2023-05-18T09:20:34.395Z,6.03
2023-05-18T09:22:06.258Z,5.30
2023-05-18T09:23:38.968Z,5.63
2023-05-18T09:25:12.103Z,7.60
2023-05-18T09:26:44.024Z,6.57
2023-05-18T09:28:34.215Z,5.32
2023-05-18T09:30:14.874Z,6.13
2023-05-18T09:31:51.082Z,5.65
2023-05-18T09:33:24.607Z,4.85
2023-05-18T09:34:56.921Z,5.53
2023-05-18T09:36:29.307Z,8.82
2023-05-18T09:38:06.500Z,5.78
2023-05-18T09:39:38.275Z,8.23
2023-05-18T09:41:15.090Z,5.82
2023-05-18T09:42:48.701Z,4.43
2023-05-18T09:44:28.650Z,5.90
2023-05-18T09:46:02.153Z,5.95
2023-05-18T09:47:34.613Z,5.30
2023-05-18T09:49:06.784Z,6.55
2023-05-18T09:50:38.547Z,7.00
2023-05-18T09:52:10.988Z,4.93
2023-05-18T09:53:42.715Z,7.03
2023-05-18T09:55:28.003Z,5.95
2023-05-18T09:57:10.253Z,7.20
2023-05-18T09:58:51.933Z,5.72
2023-05-18T10:00:25.976Z,7.57
2023-05-18T10:02:02.927Z,9.25
2023-05-18T10:03:38.383Z,4.80
2023-05-18T10:05:20.819Z,6.40
2023-05-18T10:06:52.868Z,6.53
2023-05-18T10:08:32.121Z,5.80
2023-05-18T10:10:09.137Z,6.18
2023-05-18T10:11:41.392Z,6.40
2023-05-18T10:13:17.837Z,7.97
2023-05-18T10:14:51.052Z,7.75
2023-05-18T10:16:24.220Z,5.35
2023-05-18T10:17:59.960Z,5.85
2023-05-18T10:19:39.974Z,6.32
2023-05-18T10:21:15.463Z,8.55
2023-05-18T10:22:48.328Z,5.40
2023-05-18T10:24:20.036Z,3.97
2023-05-18T10:25:52.238Z,4.32
2023-05-18T10:27:25.980Z,4.80
2023-05-18T10:29:01.788Z,7.43
2023-05-18T10:30:33.945Z,5.80
2023-05-18T10:32:19.872Z,5.28
2023-05-18T10:33:51.971Z,5.85
2023-05-18T10:35:24.759Z,6.70
2023-05-18T10:36:59.248Z,5.82
2023-05-18T10:38:33.378Z,5.43
2023-05-18T10:40:10.056Z,5.28
2023-05-18T10:41:45.571Z,5.03
2023-05-18T10:43:26.274Z,4.88
2023-05-18T10:45:07.170Z,4.07
2023-05-18T10:46:42.518Z,6.32
2023-05-18T10:48:14.400Z,5.72
2023-05-18T10:49:46.651Z,6.60
2023-05-18T10:51:19.241Z,5.20
2023-05-18T10:52:51.032Z,6.50
2023-05-18T10:54:25.465Z,5.43
2023-05-18T10:55:57.378Z,5.30
2023-05-18T10:57:31.265Z,4.65
2023-05-18T10:59:03.173Z,5.70
2023-05-18T11:00:36.445Z,4.70
2023-05-18T11:02:09.567Z,5.95
2023-05-18T11:03:42.139Z,6.80
2023-05-18T11:05:14.135Z,4.60
2023-05-18T11:06:54.372Z,5.25
2023-05-18T11:08:29.230Z,5.50
2023-05-18T11:10:03.294Z,4.45
2023-05-18T11:11:53.864Z,5.13
2023-05-18T11:13:28.275Z,5.00
2023-05-18T11:15:01.056Z,3.88
2023-05-18T11:16:39.533Z,4.55
2023-05-18T11:18:14.386Z,5.65
2023-05-18T11:20:14.452Z,4.63
2023-05-18T11:21:53.341Z,3.80
2023-05-18T11:23:25.072Z,4.45
2023-05-18T11:24:56.793Z,3.72
2023-05-18T11:26:28.733Z,3.50
2023-05-18T11:28:04.826Z,4.95
2023-05-18T11:29:38.260Z,4.93
2023-05-18T11:31:09.938Z,3.80
2023-05-18T11:32:50.164Z,5.95
2023-05-18T11:34:38.876Z,3.47
2023-05-18T11:36:11.816Z,3.95
2023-05-18T11:37:49.594Z,4.25
2023-05-18T11:39:23.700Z,3.53
2023-05-18T11:40:57.881Z,4.60
2023-05-18T11:42:32.854Z,4.75
2023-05-18T11:44:17.529Z,4.88
2023-05-18T11:45:57.333Z,5.13
2023-05-18T11:47:31.750Z,4.28
2023-05-18T11:49:07.462Z,4.10
2023-05-18T11:50:39.497Z,4.95
2023-05-18T11:52:16.262Z,5.35
2023-05-18T11:53:48.538Z,4.47
2023-05-18T11:55:21.008Z,6.30
2023-05-18T11:56:52.806Z,7.18
2023-05-18T11:58:24.688Z,5.60
2023-05-18T11:59:57.085Z,6.15
2023-05-18T12:01:29.005Z,5.18
2023-05-18T12:03:01.080Z,5.10
2023-05-18T12:04:34.642Z,4.75
2023-05-18T12:06:07.273Z,5.30
2023-05-18T12:07:39.613Z,5.78
2023-05-18T12:09:11.395Z,5.35
2023-05-18T12:10:44.277Z,6.78
2023-05-18T12:12:24.255Z,5.18
2023-05-18T12:13:56.355Z,7.65
2023-05-18T12:15:28.791Z,8.20
2023-05-18T12:17:00.809Z,8.07
2023-05-18T12:18:35.240Z,6.20
2023-05-18T12:20:11.896Z,5.88
2023-05-18T12:21:43.864Z,8.57
2023-05-18T12:23:15.564Z,6.97
2023-05-18T12:24:47.305Z,5.13
2023-05-18T12:26:20.786Z,3.92
2023-05-18T12:27:55.606Z,5.82
2023-05-18T12:29:27.287Z,6.25
2023-05-18T12:31:00.241Z,5.60
2023-05-18T12:32:31.976Z,7.05
2023-05-18T12:34:03.742Z,4.78
2023-05-18T12:35:37.191Z,5.88
2023-05-18T12:37:09.043Z,5.07
2023-05-18T12:38:40.961Z,6.15
2023-05-18T12:40:14.007Z,5.75
2023-05-18T12:41:45.895Z,6.05
2023-05-18T12:43:17.839Z,7.03
2023-05-18T12:44:50.911Z,4.88
2023-05-18T12:46:31.469Z,4.80
2023-05-18T12:48:06.375Z,4.72
2023-05-18T12:49:38.637Z,4.57
2023-05-18T12:51:19.634Z,5.05
2023-05-18T12:52:51.466Z,4.82
2023-05-18T12:54:27.893Z,6.75
2023-05-18T12:56:00.055Z,7.80
2023-05-18T12:57:33.137Z,7.13
2023-05-18T12:59:06.728Z,6.43
2023-05-18T13:00:38.482Z,5.93
2023-05-18T13:02:10.396Z,6.28
2023-05-18T13:03:44.744Z,6.65
2023-05-18T13:05:18.984Z,5.07
2023-05-18T13:06:52.230Z,5.63
2023-05-18T13:08:24.059Z,7.43
2023-05-18T13:10:00.754Z,6.50
2023-05-18T13:11:32.674Z,7.43
2023-05-18T13:13:04.443Z,5.75
2023-05-18T13:14:37.834Z,6.20
2023-05-18T13:16:16.064Z,5.40
2023-05-18T13:17:49.795Z,6.40
2023-05-18T13:19:21.590Z,5.45
2023-05-18T13:20:55.161Z,5.43
2023-05-18T13:22:28.762Z,6.95
2023-05-18T13:24:01.220Z,7.05
2023-05-18T13:25:33.153Z,7.07
2023-05-18T13:27:05.443Z,6.35
2023-05-18T13:28:37.192Z,7.30
2023-05-18T13:30:12.151Z,6.72
2023-05-18T13:31:44.258Z,5.65
2023-05-18T13:33:16.993Z,7.03
2023-05-18T13:34:48.914Z,9.23
2023-05-18T13:36:21.247Z,6.68
2023-05-18T13:37:54.323Z,5.53
2023-05-18T13:39:26.053Z,7.07
2023-05-18T13:40:57.808Z,7.75
2023-05-18T13:42:29.504Z,6.45
2023-05-18T13:44:01.272Z,5.32
2023-05-18T13:45:33.363Z,6.38
2023-05-18T13:47:05.568Z,6.35
2023-05-18T13:48:37.364Z,5.40
2023-05-18T13:50:09.650Z,6.72
2023-05-18T13:51:42.532Z,6.03
2023-05-18T13:53:15.789Z,5.32
2023-05-18T13:54:48.832Z,5.72
2023-05-18T13:56:21.136Z,5.63
2023-05-18T13:57:52.886Z,6.78
2023-05-18T13:59:25.091Z,6.32
2023-05-18T14:00:56.857Z,5.85
2023-05-18T14:02:28.783Z,6.55
2023-05-18T14:04:00.778Z,7.25
2023-05-18T14:05:32.521Z,5.05
2023-05-18T14:07:04.608Z,5.35
2023-05-18T14:08:37.929Z,8.15
2023-05-18T14:10:10.637Z,5.93
2023-05-18T14:11:42.428Z,6.93
2023-05-18T14:13:14.193Z,6.70
2023-05-18T14:14:45.940Z,6.32
2023-05-18T14:16:17.717Z,6.72
2023-05-18T14:17:49.542Z,5.68
2023-05-18T14:19:21.525Z,5.47
2023-05-18T14:20:55.545Z,5.00
2023-05-18T14:22:27.585Z,6.75
2023-05-18T14:24:03.726Z,5.70
2023-05-18T14:25:35.432Z,5.57
2023-05-18T14:27:07.426Z,6.50
2023-05-18T14:28:39.076Z,5.82
2023-05-18T14:30:11.322Z,6.25
2023-05-18T14:31:43.009Z,6.25
2023-05-18T14:33:14.712Z,5.05
2023-05-18T14:34:46.466Z,6.50
2023-05-18T14:36:20.544Z,6.93
2023-05-18T14:37:53.736Z,8.27
2023-05-18T14:39:38.081Z,7.00
2023-05-18T14:41:10.873Z,5.93
2023-05-18T14:42:42.677Z,7.80
2023-05-18T14:44:14.449Z,5.28
2023-05-18T14:45:50.623Z,7.03
2023-05-18T14:47:28.591Z,5.80
2023-05-18T14:49:00.386Z,6.63
2023-05-18T14:50:37.430Z,6.55
2023-05-18T14:52:10.264Z,5.05
2023-05-18T14:53:42.082Z,6.15
2023-05-18T14:55:15.335Z,6.22
2023-05-18T14:56:47.139Z,5.60
2023-05-18T14:58:18.835Z,6.35
2023-05-18T14:59:50.864Z,7.55
2023-05-18T15:01:24.403Z,5.63
2023-05-18T15:02:56.792Z,7.38
2023-05-18T15:04:28.743Z,6.57
2023-05-18T15:06:00.410Z,6.25
2023-05-18T15:07:32.221Z,6.60
2023-05-18T15:09:06.181Z,7.28
2023-05-18T15:10:39.296Z,4.63
2023-05-18T15:12:11.140Z,7.22
2023-05-18T15:13:44.093Z,6.50
2023-05-18T15:15:16.849Z,7.05
2023-05-18T15:16:48.825Z,7.47
2023-05-18T15:18:20.636Z,5.72
2023-05-18T15:19:52.923Z,6.82
2023-05-18T15:21:24.687Z,8.43
2023-05-18T15:22:56.458Z,5.90
2023-05-18T15:24:28.168Z,7.18
2023-05-18T15:26:01.287Z,6.68
2023-05-18T15:27:33.051Z,7.53
2023-05-18T15:29:04.982Z,5.53
2023-05-18T15:30:41.696Z,7.40
2023-05-18T15:32:16.382Z,6.65
2023-05-18T15:33:48.266Z,9.57
2023-05-18T15:35:20.019Z,5.28
2023-05-18T15:36:53.428Z,5.05
2023-05-18T15:38:25.696Z,6.97
2023-05-18T15:39:57.759Z,7.18
2023-05-18T15:41:33.882Z,6.97
2023-05-18T15:43:05.627Z,6.18
2023-05-18T15:44:37.408Z,8.55
2023-05-18T15:46:09.143Z,7.93
2023-05-18T15:47:42.452Z,8.65
2023-05-18T15:49:14.251Z,7.50
2023-05-18T15:50:49.356Z,7.28
2023-05-18T15:52:21.303Z,6.07
2023-05-18T15:53:53.041Z,5.10
2023-05-18T15:55:24.862Z,5.05
2023-05-18T15:56:58.017Z,5.97
2023-05-18T15:58:30.134Z,5.50
2023-05-18T16:00:02.237Z,5.95
2023-05-18T16:01:37.168Z,5.82
2023-05-18T16:03:09.064Z,5.90
2023-05-18T16:04:50.510Z,6.72
2023-05-18T16:06:22.651Z,7.10
2023-05-18T16:07:57.366Z,7.75
2023-05-18T16:09:29.159Z,5.00
2023-05-18T16:11:04.773Z,6.22
2023-05-18T16:12:37.961Z,6.32
2023-05-18T16:14:12.154Z,6.30
2023-05-18T16:15:46.680Z,11.00
2023-05-18T16:17:21.527Z,8.38
2023-05-18T16:18:53.404Z,5.20
2023-05-18T16:20:27.912Z,6.03
2023-05-18T16:22:00.158Z,6.07
2023-05-18T16:23:31.922Z,6.82
2023-05-18T16:25:03.855Z,5.22
2023-05-18T16:26:40.026Z,5.18
2023-05-18T16:28:13.450Z,5.05
2023-05-18T16:29:45.341Z,5.80
2023-05-18T16:31:17.138Z,5.78
2023-05-18T16:32:52.323Z,8.02
2023-05-18T16:34:29.741Z,5.22
2023-05-18T16:36:01.450Z,5.32
2023-05-18T16:37:33.452Z,6.30
2023-05-18T16:39:05.201Z,6.78
2023-05-18T16:40:36.879Z,6.65
2023-05-18T16:42:09.631Z,4.95
2023-05-18T16:43:43.660Z,7.03
2023-05-18T16:45:15.542Z,6.70
2023-05-18T16:46:47.736Z,6.30
2023-05-18T16:48:19.595Z,3.83
2023-05-18T16:49:51.471Z,3.70
2023-05-18T16:51:24.038Z,6.40
2023-05-18T16:52:57.131Z,3.90
2023-05-18T16:54:29.037Z,6.18
2023-05-18T16:56:00.820Z,5.38
2023-05-18T16:57:33.790Z,5.00
2023-05-18T16:59:07.688Z,5.53
2023-05-18T17:00:39.642Z,6.50
2023-05-18T17:02:13.660Z,5.10
2023-05-18T17:03:45.908Z,7.10
2023-05-18T17:05:21.487Z,5.10
2023-05-18T17:06:55.708Z,4.97
2023-05-18T17:08:27.562Z,5.47
2023-05-18T17:09:59.313Z,4.65
2023-05-18T17:11:31.608Z,5.47
2023-05-18T17:13:03.572Z,6.57
2023-05-18T17:14:36.826Z,7.32
2023-05-18T17:16:08.563Z,3.47
2023-05-18T17:17:41.990Z,6.10
2023-05-18T17:19:14.238Z,5.00
2023-05-18T17:20:46.138Z,5.63
2023-05-18T17:22:17.826Z,4.70
2023-05-18T17:23:49.603Z,6.90
2023-05-18T17:25:21.382Z,4.60
2023-05-18T17:26:53.267Z,5.53
2023-05-18T17:28:25.486Z,6.28
2023-05-18T17:29:58.682Z,4.78
2023-05-18T17:31:30.925Z,5.75
2023-05-18T17:33:02.797Z,5.25
2023-05-18T17:34:34.741Z,6.50
2023-05-18T17:36:07.019Z,6.65
2023-05-18T17:37:38.879Z,6.05
2023-05-18T17:39:10.570Z,4.63
2023-05-18T17:40:42.325Z,5.57
2023-05-18T17:42:14.184Z,4.75
2023-05-18T17:43:46.009Z,7.82
2023-05-18T17:45:19.193Z,6.70
2023-05-18T17:46:51.339Z,5.13
2023-05-18T17:48:23.275Z,4.78
2023-05-18T17:49:57.616Z,6.13
2023-05-18T17:51:42.348Z,6.68
2023-05-18T17:53:14.068Z,4.95
2023-05-18T17:54:45.742Z,5.18
2023-05-18T17:56:17.415Z,5.13
2023-05-18T17:57:49.418Z,4.30
2023-05-18T17:59:21.415Z,5.10
2023-05-18T18:00:54.662Z,5.07
2023-05-18T18:02:26.553Z,5.28
2023-05-18T18:03:58.424Z,4.75
2023-05-18T18:05:31.355Z,6.20
2023-05-18T18:07:07.699Z,5.05
2023-05-18T18:08:39.633Z,4.00
2023-05-18T18:10:11.918Z,6.45
2023-05-18T18:11:46.220Z,4.88
2023-05-18T18:13:18.332Z,5.88
2023-05-18T18:14:50.357Z,4.75
2023-05-18T18:16:23.698Z,6.47
2023-05-18T18:17:56.485Z,5.57
2023-05-18T18:19:28.471Z,6.15
2023-05-18T18:21:00.369Z,4.72
2023-05-18T18:22:33.129Z,5.70
2023-05-18T18:24:07.091Z,6.38
2023-05-18T18:25:38.893Z,7.22
2023-05-18T18:27:10.657Z,4.05
2023-05-18T18:28:42.379Z,4.28
2023-05-18T18:30:14.947Z,5.15
2023-05-18T18:31:48.300Z,4.55
2023-05-18T18:33:22.275Z,4.43
2023-05-18T18:34:54.247Z,5.05
2023-05-18T18:36:29.155Z,5.88
2023-05-18T18:38:00.976Z,6.00
2023-05-18T18:39:32.659Z,7.05
2023-05-18T18:41:05.164Z,4.45
2023-05-18T18:42:37.108Z,5.70
2023-05-18T18:44:08.818Z,4.80
2023-05-18T18:45:40.822Z,4.13
2023-05-18T18:47:13.967Z,6.20
2023-05-18T18:48:45.881Z,4.85
2023-05-18T18:50:17.598Z,4.10
2023-05-18T18:51:49.485Z,5.22
2023-05-18T18:53:21.400Z,5.82
2023-05-18T18:54:53.242Z,5.15
2023-05-18T18:56:24.991Z,6.07
2023-05-18T18:57:59.562Z,5.45
2023-05-18T18:59:31.371Z,5.85
2023-05-18T19:01:03.245Z,6.65
2023-05-18T19:02:36.433Z,5.45
2023-05-18T19:04:08.252Z,8.25
2023-05-18T19:05:40.228Z,6.85
2023-05-18T19:07:11.989Z,4.07
2023-05-18T19:08:43.848Z,6.03
2023-05-18T19:10:15.976Z,5.90
2023-05-18T19:11:47.680Z,5.15
2023-05-18T19:13:19.881Z,5.18
2023-05-18T19:14:51.587Z,5.90
2023-05-18T19:16:23.443Z,5.25
2023-05-18T19:17:56.564Z,5.05
2023-05-18T19:19:29.638Z,6.57
2023-05-18T19:21:02.707Z,5.25
2023-05-18T19:22:34.860Z,6.90
2023-05-18T19:24:07.537Z,4.13
2023-05-18T19:25:39.357Z,4.50
2023-05-18T19:27:11.094Z,7.05
2023-05-18T19:28:43.001Z,5.03
2023-05-18T19:30:20.164Z,6.28
2023-05-18T19:31:52.571Z,4.55
2023-05-18T19:33:25.914Z,4.95
2023-05-18T19:34:57.638Z,7.30
2023-05-18T19:36:31.605Z,5.93
2023-05-18T19:38:03.414Z,4.88
2023-05-18T19:39:35.181Z,5.78
2023-05-18T19:41:06.983Z,4.68
2023-05-18T19:42:38.788Z,5.80
2023-05-18T19:44:10.548Z,5.28
2023-05-18T19:45:42.447Z,6.57
2023-05-18T19:47:14.809Z,8.88
2023-05-18T19:48:50.654Z,4.90
2023-05-18T19:50:22.482Z,5.75
2023-05-18T19:51:54.321Z,6.75
2023-05-18T19:53:30.302Z,7.05
2023-05-18T19:55:05.658Z,6.38
2023-05-18T19:56:37.425Z,8.25
2023-05-18T19:58:09.398Z,5.63
2023-05-18T19:59:42.710Z,5.30
2023-05-18T20:01:14.542Z,7.25
2023-05-18T20:02:46.314Z,6.15
2023-05-18T20:04:23.588Z,7.32
2023-05-18T20:05:55.458Z,5.90
2023-05-18T20:07:27.945Z,5.53
2023-05-18T20:09:03.648Z,7.18
2023-05-18T20:10:35.560Z,4.72
2023-05-18T20:12:07.690Z,5.30
2023-05-18T20:13:39.334Z,7.50
2023-05-18T20:15:13.733Z,6.22
2023-05-18T20:16:45.518Z,4.20
2023-05-18T20:18:17.266Z,5.93
2023-05-18T20:19:53.557Z,7.65
2023-05-18T20:21:27.737Z,6.88
2023-05-18T20:23:00.015Z,8.45
2023-05-18T20:24:32.716Z,4.70
2023-05-18T20:26:05.968Z,6.57
2023-05-18T20:27:37.986Z,6.90
2023-05-18T20:29:15.045Z,6.03
2023-05-18T20:30:47.282Z,6.30